sensor_id;sensor_type;location;lat;lon;timestamp;P1;durP1;ratioP1;P2;durP2;ratioP2
3099;SDS011;1560;52.746;13.474;2022-08-19T00:01:31;19.27;;;14.37;;
3099;SDS011;1560;52.746;13.474;2022-08-19T00:04:02;12.97;;;11.73;;
3099;SDS011;1560;52.746;13.474;2022-08-19T00:06:33;14.53;;;13.10;;
3099;SDS011;1560;52.746;13.474;2022-08-19T00:09:05;13.53;;;12.13;;
3099;SDS011;1560;52.746;13.474;2022-08-19T00:14:13;14.97;;;13.43;;
3099;SDS011;1560;52.746;13.474;2022-08-19T00:16:44;16.17;;;14.47;;
3099;SDS011;1560;52.746;13.474;2022-08-19T00:19:14;16.57;;;14.90;;
3099;SDS011;1560;52.746;13.474;2022-08-19T00:21:43;16.10;;;13.80;;
3099;SDS011;1560;52.746;13.474;2022-08-19T00:24:13;14.80;;;13.30;;
3099;SDS011;1560;52.746;13.474;2022-08-19T00:26:42;14.93;;;13.47;;
3099;SDS011;1560;52.746;13.474;2022-08-19T00:31:48;12.47;;;11.27;;
3099;SDS011;1560;52.746;13.474;2022-08-19T00:34:20;12.03;;;10.83;;
3099;SDS011;1560;52.746;13.474;2022-08-19T00:36:57;14.30;;;12.80;;
3099;SDS011;1560;52.746;13.474;2022-08-19T00:39:26;13.33;;;11.93;;
3099;SDS011;1560;52.746;13.474;2022-08-19T00:41:56;14.53;;;13.10;;
3099;SDS011;1560;52.746;13.474;2022-08-19T00:44:26;14.87;;;13.30;;
3099;SDS011;1560;52.746;13.474;2022-08-19T00:46:57;15.97;;;14.27;;
3099;SDS011;1560;52.746;13.474;2022-08-19T00:49:27;17.13;;;14.40;;
3099;SDS011;1560;52.746;13.474;2022-08-19T00:52:00;18.73;;;14.60;;
3099;SDS011;1560;52.746;13.474;2022-08-19T00:54:38;12.80;;;11.67;;
3099;SDS011;1560;52.746;13.474;2022-08-19T00:57:09;13.30;;;11.90;;
3099;SDS011;1560;52.746;13.474;2022-08-19T00:59:47;12.77;;;11.57;;
3099;SDS011;1560;52.746;13.474;2022-08-19T01:02:19;11.47;;;10.37;;
3099;SDS011;1560;52.746;13.474;2022-08-19T01:04:48;11.13;;;10.03;;
3099;SDS011;1560;52.746;13.474;2022-08-19T01:07:17;11.47;;;10.37;;
3099;SDS011;1560;52.746;13.474;2022-08-19T01:09:46;12.33;;;11.03;;
3099;SDS011;1560;52.746;13.474;2022-08-19T01:14:51;11.93;;;10.83;;
3099;SDS011;1560;52.746;13.474;2022-08-19T01:17:20;13.17;;;11.87;;
3099;SDS011;1560;52.746;13.474;2022-08-19T01:19:49;12.87;;;11.57;;
3099;SDS011;1560;52.746;13.474;2022-08-19T01:24:55;11.90;;;10.70;;
3099;SDS011;1560;52.746;13.474;2022-08-19T01:27:25;14.77;;;13.30;;
3099;SDS011;1560;52.746;13.474;2022-08-19T01:29:53;15.03;;;12.87;;
3099;SDS011;1560;52.746;13.474;2022-08-19T01:32:22;12.67;;;11.43;;
3099;SDS011;1560;52.746;13.474;2022-08-19T01:34:51;13.40;;;12.07;;
3099;SDS011;1560;52.746;13.474;2022-08-19T01:37:20;12.07;;;10.83;;
3099;SDS011;1560;52.746;13.474;2022-08-19T01:42:24;12.50;;;11.20;;
3099;SDS011;1560;52.746;13.474;2022-08-19T01:44:53;11.27;;;10.30;;
3099;SDS011;1560;52.746;13.474;2022-08-19T01:47:22;12.47;;;11.27;;
3099;SDS011;1560;52.746;13.474;2022-08-19T01:49:51;11.37;;;10.27;;
3099;SDS011;1560;52.746;13.474;2022-08-19T01:52:28;12.97;;;11.67;;
3099;SDS011;1560;52.746;13.474;2022-08-19T01:54:57;12.47;;;11.20;;
3099;SDS011;1560;52.746;13.474;2022-08-19T02:00:03;11.93;;;10.83;;
3099;SDS011;1560;52.746;13.474;2022-08-19T02:02:34;14.30;;;12.70;;
3099;SDS011;1560;52.746;13.474;2022-08-19T02:07:40;12.90;;;11.50;;
3099;SDS011;1560;52.746;13.474;2022-08-19T02:10:11;18.00;;;13.87;;
3099;SDS011;1560;52.746;13.474;2022-08-19T02:12:42;16.63;;;14.90;;
3099;SDS011;1560;52.746;13.474;2022-08-19T02:15:11;12.67;;;11.37;;
3099;SDS011;1560;52.746;13.474;2022-08-19T02:17:40;15.83;;;14.07;;
3099;SDS011;1560;52.746;13.474;2022-08-19T02:22:47;16.10;;;14.50;;
3099;SDS011;1560;52.746;13.474;2022-08-19T02:27:52;19.43;;;13.90;;
3099;SDS011;1560;52.746;13.474;2022-08-19T02:30:21;16.00;;;12.77;;
3099;SDS011;1560;52.746;13.474;2022-08-19T02:32:51;14.80;;;13.30;;
3099;SDS011;1560;52.746;13.474;2022-08-19T02:35:20;12.80;;;11.50;;
3099;SDS011;1560;52.746;13.474;2022-08-19T02:37:48;18.17;;;13.43;;
3099;SDS011;1560;52.746;13.474;2022-08-19T02:45:47;17.07;;;15.33;;
3099;SDS011;1560;52.746;13.474;2022-08-19T02:48:17;16.63;;;15.13;;
3099;SDS011;1560;52.746;13.474;2022-08-19T02:50:47;16.67;;;14.87;;
3099;SDS011;1560;52.746;13.474;2022-08-19T02:53:18;18.47;;;14.80;;
3099;SDS011;1560;52.746;13.474;2022-08-19T02:55:48;17.03;;;14.90;;
3099;SDS011;1560;52.746;13.474;2022-08-19T02:58:26;14.97;;;13.50;;
3099;SDS011;1560;52.746;13.474;2022-08-19T03:00:55;18.30;;;14.90;;
3099;SDS011;1560;52.746;13.474;2022-08-19T03:06:05;17.40;;;15.80;;
3099;SDS011;1560;52.746;13.474;2022-08-19T03:11:13;15.70;;;14.07;;
3099;SDS011;1560;52.746;13.474;2022-08-19T03:13:43;16.83;;;14.97;;
3099;SDS011;1560;52.746;13.474;2022-08-19T03:18:48;19.23;;;14.43;;
3099;SDS011;1560;52.746;13.474;2022-08-19T03:21:17;19.87;;;14.37;;
3099;SDS011;1560;52.746;13.474;2022-08-19T03:23:47;14.80;;;13.40;;
3099;SDS011;1560;52.746;13.474;2022-08-19T03:26:25;14.30;;;12.90;;
3099;SDS011;1560;52.746;13.474;2022-08-19T03:28:53;13.93;;;12.30;;
3099;SDS011;1560;52.746;13.474;2022-08-19T03:31:23;13.60;;;12.20;;
3099;SDS011;1560;52.746;13.474;2022-08-19T03:33:53;15.83;;;14.23;;
3099;SDS011;1560;52.746;13.474;2022-08-19T03:36:30;15.67;;;14.07;;
3099;SDS011;1560;52.746;13.474;2022-08-19T03:38:59;15.33;;;13.80;;
3099;SDS011;1560;52.746;13.474;2022-08-19T03:41:38;13.53;;;12.23;;
3099;SDS011;1560;52.746;13.474;2022-08-19T03:44:08;15.67;;;14.07;;
3099;SDS011;1560;52.746;13.474;2022-08-19T03:46:46;17.13;;;15.53;;
3099;SDS011;1560;52.746;13.474;2022-08-19T03:49:16;18.13;;;16.10;;
3099;SDS011;1560;52.746;13.474;2022-08-19T03:51:46;15.87;;;14.30;;
3099;SDS011;1560;52.746;13.474;2022-08-19T03:56:52;15.93;;;14.23;;
3099;SDS011;1560;52.746;13.474;2022-08-19T03:59:23;15.60;;;14.00;;
3099;SDS011;1560;52.746;13.474;2022-08-19T04:01:55;17.70;;;15.83;;
3099;SDS011;1560;52.746;13.474;2022-08-19T04:04:25;17.30;;;15.50;;
3099;SDS011;1560;52.746;13.474;2022-08-19T04:06:54;16.30;;;14.63;;
3099;SDS011;1560;52.746;13.474;2022-08-19T04:09:23;17.50;;;15.70;;
3099;SDS011;1560;52.746;13.474;2022-08-19T04:11:53;17.03;;;15.27;;
3099;SDS011;1560;52.746;13.474;2022-08-19T04:14:24;13.57;;;12.37;;
3099;SDS011;1560;52.746;13.474;2022-08-19T04:16:55;16.73;;;15.07;;
3099;SDS011;1560;52.746;13.474;2022-08-19T04:19:24;17.40;;;14.93;;
3099;SDS011;1560;52.746;13.474;2022-08-19T04:21:53;18.67;;;15.07;;
3099;SDS011;1560;52.746;13.474;2022-08-19T04:24:31;15.03;;;13.53;;
3099;SDS011;1560;52.746;13.474;2022-08-19T04:27:01;18.63;;;16.70;;
3099;SDS011;1560;52.746;13.474;2022-08-19T04:29:39;18.63;;;16.63;;
3099;SDS011;1560;52.746;13.474;2022-08-19T04:32:08;18.10;;;16.27;;
3099;SDS011;1560;52.746;13.474;2022-08-19T04:34:37;15.50;;;14.00;;
3099;SDS011;1560;52.746;13.474;2022-08-19T04:37:06;17.60;;;15.63;;
3099;SDS011;1560;52.746;13.474;2022-08-19T04:42:13;16.40;;;14.70;;
3099;SDS011;1560;52.746;13.474;2022-08-19T04:45:00;18.43;;;16.47;;
3099;SDS011;1560;52.746;13.474;2022-08-19T04:50:07;18.40;;;15.93;;
3099;SDS011;1560;52.746;13.474;2022-08-19T04:55:14;19.63;;;17.63;;
3099;SDS011;1560;52.746;13.474;2022-08-19T04:57:44;17.60;;;15.33;;
3099;SDS011;1560;52.746;13.474;2022-08-19T05:02:49;19.80;;;17.70;;
3099;SDS011;1560;52.746;13.474;2022-08-19T05:05:18;22.27;;;18.90;;
3099;SDS011;1560;52.746;13.474;2022-08-19T05:07:47;20.57;;;17.07;;
3099;SDS011;1560;52.746;13.474;2022-08-19T05:12:52;23.13;;;20.77;;
3099;SDS011;1560;52.746;13.474;2022-08-19T05:17:57;20.77;;;18.67;;
3099;SDS011;1560;52.746;13.474;2022-08-19T05:20:43;19.13;;;17.07;;
3099;SDS011;1560;52.746;13.474;2022-08-19T05:26:06;19.00;;;17.00;;
3099;SDS011;1560;52.746;13.474;2022-08-19T05:28:37;22.93;;;18.60;;
3099;SDS011;1560;52.746;13.474;2022-08-19T05:31:14;20.07;;;15.73;;
3099;SDS011;1560;52.746;13.474;2022-08-19T05:33:43;18.93;;;17.00;;
3099;SDS011;1560;52.746;13.474;2022-08-19T05:36:12;17.17;;;15.33;;
3099;SDS011;1560;52.746;13.474;2022-08-19T05:41:17;19.10;;;16.63;;
3099;SDS011;1560;52.746;13.474;2022-08-19T05:43:46;18.80;;;17.00;;
3099;SDS011;1560;52.746;13.474;2022-08-19T05:46:17;19.13;;;17.03;;
3099;SDS011;1560;52.746;13.474;2022-08-19T05:48:46;19.03;;;17.03;;
3099;SDS011;1560;52.746;13.474;2022-08-19T05:53:51;19.50;;;17.50;;
3099;SDS011;1560;52.746;13.474;2022-08-19T05:58:56;19.50;;;17.50;;
3099;SDS011;1560;52.746;13.474;2022-08-19T06:01:27;20.17;;;18.10;;
3099;SDS011;1560;52.746;13.474;2022-08-19T06:03:55;20.70;;;18.23;;
3099;SDS011;1560;52.746;13.474;2022-08-19T06:09:00;26.07;;;23.53;;
3099;SDS011;1560;52.746;13.474;2022-08-19T06:11:33;25.23;;;22.00;;
3099;SDS011;1560;52.746;13.474;2022-08-19T06:14:04;24.17;;;21.70;;
3099;SDS011;1560;52.746;13.474;2022-08-19T06:19:12;24.83;;;22.23;;
3099;SDS011;1560;52.746;13.474;2022-08-19T06:21:43;32.20;;;28.90;;
3099;SDS011;1560;52.746;13.474;2022-08-19T06:26:50;28.70;;;25.73;;
3099;SDS011;1560;52.746;13.474;2022-08-19T06:29:21;25.23;;;22.63;;
3099;SDS011;1560;52.746;13.474;2022-08-19T06:31:53;30.30;;;27.10;;
3099;SDS011;1560;52.746;13.474;2022-08-19T06:34:23;28.47;;;25.63;;
3099;SDS011;1560;52.746;13.474;2022-08-19T06:39:31;30.03;;;26.73;;
3099;SDS011;1560;52.746;13.474;2022-08-19T06:42:02;30.67;;;27.60;;
3099;SDS011;1560;52.746;13.474;2022-08-19T06:44:35;28.63;;;25.60;;
3099;SDS011;1560;52.746;13.474;2022-08-19T06:49:42;28.90;;;25.90;;
3099;SDS011;1560;52.746;13.474;2022-08-19T06:52:11;28.93;;;26.03;;
3099;SDS011;1560;52.746;13.474;2022-08-19T06:54:40;26.70;;;23.90;;
3099;SDS011;1560;52.746;13.474;2022-08-19T06:59:46;32.47;;;27.23;;
3099;SDS011;1560;52.746;13.474;2022-08-19T07:02:14;31.03;;;27.90;;
3099;SDS011;1560;52.746;13.474;2022-08-19T07:04:43;30.47;;;27.27;;
3099;SDS011;1560;52.746;13.474;2022-08-19T07:07:13;32.00;;;28.70;;
3099;SDS011;1560;52.746;13.474;2022-08-19T07:09:42;33.87;;;30.47;;
3099;SDS011;1560;52.746;13.474;2022-08-19T07:14:48;33.60;;;28.40;;
3099;SDS011;1560;52.746;13.474;2022-08-19T07:19:52;35.73;;;27.87;;
3099;SDS011;1560;52.746;13.474;2022-08-19T07:22:21;29.33;;;26.40;;
3099;SDS011;1560;52.746;13.474;2022-08-19T07:24:59;30.50;;;27.40;;
3099;SDS011;1560;52.746;13.474;2022-08-19T07:27:29;33.23;;;29.63;;
3099;SDS011;1560;52.746;13.474;2022-08-19T07:29:58;31.93;;;28.63;;
3099;SDS011;1560;52.746;13.474;2022-08-19T07:32:27;34.10;;;29.80;;
3099;SDS011;1560;52.746;13.474;2022-08-19T07:37:33;34.77;;;30.97;;
3099;SDS011;1560;52.746;13.474;2022-08-19T07:40:04;36.20;;;32.07;;
3099;SDS011;1560;52.746;13.474;2022-08-19T07:45:10;29.77;;;26.90;;
3099;SDS011;1560;52.746;13.474;2022-08-19T07:47:39;30.20;;;27.13;;
3099;SDS011;1560;52.746;13.474;2022-08-19T07:50:09;28.03;;;25.13;;
3099;SDS011;1560;52.746;13.474;2022-08-19T07:55:16;32.47;;;29.30;;
3099;SDS011;1560;52.746;13.474;2022-08-19T07:57:46;32.13;;;28.77;;
3099;SDS011;1560;52.746;13.474;2022-08-19T08:00:15;31.00;;;27.70;;
3099;SDS011;1560;52.746;13.474;2022-08-19T08:02:53;32.17;;;28.97;;
3099;SDS011;1560;52.746;13.474;2022-08-19T08:07:57;30.87;;;27.67;;
3099;SDS011;1560;52.746;13.474;2022-08-19T08:10:44;32.13;;;28.47;;
3099;SDS011;1560;52.746;13.474;2022-08-19T08:15:49;29.30;;;26.33;;
3099;SDS011;1560;52.746;13.474;2022-08-19T08:18:17;27.87;;;25.00;;
3099;SDS011;1560;52.746;13.474;2022-08-19T08:20:46;27.53;;;24.70;;
3099;SDS011;1560;52.746;13.474;2022-08-19T08:23:15;28.20;;;25.33;;
3099;SDS011;1560;52.746;13.474;2022-08-19T08:25:51;27.00;;;24.20;;
3099;SDS011;1560;52.746;13.474;2022-08-19T08:28:23;33.50;;;29.43;;
3099;SDS011;1560;52.746;13.474;2022-08-19T08:30:53;32.27;;;28.93;;
3099;SDS011;1560;52.746;13.474;2022-08-19T08:35:58;28.50;;;25.60;;
3099;SDS011;1560;52.746;13.474;2022-08-19T08:38:26;27.40;;;24.60;;
3099;SDS011;1560;52.746;13.474;2022-08-19T08:41:05;26.33;;;23.47;;
3099;SDS011;1560;52.746;13.474;2022-08-19T08:46:13;27.13;;;24.53;;
3099;SDS011;1560;52.746;13.474;2022-08-19T08:48:52;28.43;;;25.63;;
3099;SDS011;1560;52.746;13.474;2022-08-19T08:51:16;30.37;;;27.27;;
3099;SDS011;1560;52.746;13.474;2022-08-19T08:56:25;28.20;;;25.10;;
3099;SDS011;1560;52.746;13.474;2022-08-19T08:58:56;25.23;;;22.70;;
3099;SDS011;1560;52.746;13.474;2022-08-19T09:01:26;25.47;;;22.80;;
3099;SDS011;1560;52.746;13.474;2022-08-19T09:06:34;25.03;;;22.43;;
3099;SDS011;1560;52.746;13.474;2022-08-19T09:09:09;25.60;;;23.20;;
3099;SDS011;1560;52.746;13.474;2022-08-19T09:11:44;24.10;;;21.70;;
3099;SDS011;1560;52.746;13.474;2022-08-19T09:14:19;24.90;;;22.30;;
3099;SDS011;1560;52.746;13.474;2022-08-19T09:19:27;24.90;;;22.53;;
3099;SDS011;1560;52.746;13.474;2022-08-19T09:21:56;23.33;;;21.03;;
3099;SDS011;1560;52.746;13.474;2022-08-19T09:24:26;22.60;;;20.40;;
3099;SDS011;1560;52.746;13.474;2022-08-19T09:27:04;23.07;;;20.70;;
3099;SDS011;1560;52.746;13.474;2022-08-19T09:29:32;21.63;;;19.63;;
3099;SDS011;1560;52.746;13.474;2022-08-19T09:32:01;21.40;;;19.10;;
3099;SDS011;1560;52.746;13.474;2022-08-19T09:34:38;22.47;;;18.20;;
3099;SDS011;1560;52.746;13.474;2022-08-19T09:39:44;20.07;;;18.27;;
3099;SDS011;1560;52.746;13.474;2022-08-19T09:42:12;21.40;;;19.40;;
3099;SDS011;1560;52.746;13.474;2022-08-19T09:44:41;22.73;;;20.37;;
3099;SDS011;1560;52.746;13.474;2022-08-19T09:47:12;22.37;;;20.07;;
3099;SDS011;1560;52.746;13.474;2022-08-19T09:49:41;22.80;;;20.60;;
3099;SDS011;1560;52.746;13.474;2022-08-19T09:52:19;20.93;;;18.73;;
3099;SDS011;1560;52.746;13.474;2022-08-19T09:57:24;21.30;;;19.07;;
3099;SDS011;1560;52.746;13.474;2022-08-19T09:59:53;21.17;;;19.17;;
3099;SDS011;1560;52.746;13.474;2022-08-19T10:02:22;19.70;;;17.80;;
3099;SDS011;1560;52.746;13.474;2022-08-19T10:04:51;19.83;;;17.83;;
3099;SDS011;1560;52.746;13.474;2022-08-19T10:07:38;21.83;;;19.57;;
3099;SDS011;1560;52.746;13.474;2022-08-19T10:12:43;18.60;;;16.90;;
3099;SDS011;1560;52.746;13.474;2022-08-19T10:15:13;19.33;;;17.57;;
3099;SDS011;1560;52.746;13.474;2022-08-19T10:17:44;20.47;;;17.83;;
3099;SDS011;1560;52.746;13.474;2022-08-19T10:20:13;20.00;;;18.00;;
3099;SDS011;1560;52.746;13.474;2022-08-19T10:22:51;19.67;;;17.77;;
3099;SDS011;1560;52.746;13.474;2022-08-19T10:25:20;19.30;;;17.43;;
3099;SDS011;1560;52.746;13.474;2022-08-19T10:27:49;19.30;;;17.60;;
3099;SDS011;1560;52.746;13.474;2022-08-19T10:30:18;26.10;;;17.97;;
3099;SDS011;1560;52.746;13.474;2022-08-19T10:32:49;16.87;;;15.17;;
3099;SDS011;1560;52.746;13.474;2022-08-19T10:37:54;20.43;;;18.60;;
3099;SDS011;1560;52.746;13.474;2022-08-19T10:40:25;16.97;;;15.33;;
3099;SDS011;1560;52.746;13.474;2022-08-19T10:42:55;19.70;;;17.60;;
3099;SDS011;1560;52.746;13.474;2022-08-19T10:45:24;19.57;;;17.70;;
3099;SDS011;1560;52.746;13.474;2022-08-19T10:47:53;19.67;;;17.57;;
3099;SDS011;1560;52.746;13.474;2022-08-19T10:53:02;20.23;;;18.33;;
3099;SDS011;1560;52.746;13.474;2022-08-19T10:58:11;19.13;;;17.33;;
3099;SDS011;1560;52.746;13.474;2022-08-19T11:00:41;20.43;;;18.43;;
3099;SDS011;1560;52.746;13.474;2022-08-19T11:03:10;17.97;;;15.80;;
3099;SDS011;1560;52.746;13.474;2022-08-19T11:05:39;17.67;;;16.07;;
3099;SDS011;1560;52.746;13.474;2022-08-19T11:08:08;19.87;;;17.40;;
3099;SDS011;1560;52.746;13.474;2022-08-19T11:10:41;17.37;;;15.77;;
3099;SDS011;1560;52.746;13.474;2022-08-19T11:13:10;18.50;;;16.57;;
3099;SDS011;1560;52.746;13.474;2022-08-19T11:15:39;16.80;;;15.30;;
3099;SDS011;1560;52.746;13.474;2022-08-19T11:18:08;17.90;;;16.20;;
3099;SDS011;1560;52.746;13.474;2022-08-19T11:23:12;19.67;;;17.67;;
3099;SDS011;1560;52.746;13.474;2022-08-19T11:25:41;18.10;;;16.40;;
3099;SDS011;1560;52.746;13.474;2022-08-19T11:28:11;18.40;;;16.60;;
3099;SDS011;1560;52.746;13.474;2022-08-19T11:30:40;19.60;;;17.73;;
3099;SDS011;1560;52.746;13.474;2022-08-19T11:33:09;18.40;;;16.70;;
3099;SDS011;1560;52.746;13.474;2022-08-19T11:35:46;19.30;;;17.40;;
3099;SDS011;1560;52.746;13.474;2022-08-19T11:38:15;17.20;;;15.50;;
3099;SDS011;1560;52.746;13.474;2022-08-19T11:40:44;17.87;;;16.27;;
3099;SDS011;1560;52.746;13.474;2022-08-19T11:43:15;17.30;;;15.60;;
3099;SDS011;1560;52.746;13.474;2022-08-19T11:45:44;18.47;;;16.77;;
3099;SDS011;1560;52.746;13.474;2022-08-19T11:48:14;16.40;;;14.87;;
3099;SDS011;1560;52.746;13.474;2022-08-19T11:50:43;17.33;;;15.63;;
3099;SDS011;1560;52.746;13.474;2022-08-19T11:53:12;16.60;;;15.10;;
3099;SDS011;1560;52.746;13.474;2022-08-19T11:55:41;18.00;;;16.20;;
3099;SDS011;1560;52.746;13.474;2022-08-19T12:00:47;17.90;;;16.30;;
3099;SDS011;1560;52.746;13.474;2022-08-19T12:03:15;17.33;;;15.73;;
3099;SDS011;1560;52.746;13.474;2022-08-19T12:05:44;20.13;;;18.13;;
3099;SDS011;1560;52.746;13.474;2022-08-19T12:08:13;19.77;;;17.87;;
3099;SDS011;1560;52.746;13.474;2022-08-19T12:10:42;17.03;;;15.33;;
3099;SDS011;1560;52.746;13.474;2022-08-19T12:13:12;17.63;;;16.00;;
3099;SDS011;1560;52.746;13.474;2022-08-19T12:15:44;17.40;;;15.70;;
3099;SDS011;1560;52.746;13.474;2022-08-19T12:18:14;18.50;;;16.70;;
3099;SDS011;1560;52.746;13.474;2022-08-19T12:20:43;17.47;;;15.77;;
3099;SDS011;1560;52.746;13.474;2022-08-19T12:23:12;17.27;;;15.67;;
3099;SDS011;1560;52.746;13.474;2022-08-19T12:25:44;17.70;;;15.90;;
3099;SDS011;1560;52.746;13.474;2022-08-19T12:28:16;17.77;;;16.00;;
3099;SDS011;1560;52.746;13.474;2022-08-19T12:30:46;18.63;;;16.80;;
3099;SDS011;1560;52.746;13.474;2022-08-19T12:35:52;16.57;;;14.90;;
3099;SDS011;1560;52.746;13.474;2022-08-19T12:38:21;17.87;;;16.10;;
3099;SDS011;1560;52.746;13.474;2022-08-19T12:40:50;18.67;;;16.93;;
3099;SDS011;1560;52.746;13.474;2022-08-19T12:45:56;18.80;;;16.90;;
3099;SDS011;1560;52.746;13.474;2022-08-19T12:48:25;19.03;;;17.13;;
3099;SDS011;1560;52.746;13.474;2022-08-19T12:51:06;18.13;;;16.33;;
3099;SDS011;1560;52.746;13.474;2022-08-19T12:53:37;18.30;;;16.50;;
3099;SDS011;1560;52.746;13.474;2022-08-19T12:58:42;16.70;;;15.20;;
3099;SDS011;1560;52.746;13.474;2022-08-19T13:01:12;17.90;;;16.27;;
3099;SDS011;1560;52.746;13.474;2022-08-19T13:03:44;17.53;;;16.00;;
3099;SDS011;1560;52.746;13.474;2022-08-19T13:06:13;18.80;;;17.00;;
3099;SDS011;1560;52.746;13.474;2022-08-19T13:08:42;16.80;;;15.20;;
3099;SDS011;1560;52.746;13.474;2022-08-19T13:11:12;18.70;;;17.00;;
3099;SDS011;1560;52.746;13.474;2022-08-19T13:13:44;17.60;;;15.90;;
3099;SDS011;1560;52.746;13.474;2022-08-19T13:16:25;16.97;;;15.33;;
3099;SDS011;1560;52.746;13.474;2022-08-19T13:18:55;15.43;;;14.00;;
3099;SDS011;1560;52.746;13.474;2022-08-19T13:21:26;16.57;;;15.13;;
3099;SDS011;1560;52.746;13.474;2022-08-19T13:23:56;15.57;;;13.97;;
3099;SDS011;1560;52.746;13.474;2022-08-19T13:29:05;15.97;;;14.33;;
3099;SDS011;1560;52.746;13.474;2022-08-19T13:31:51;17.97;;;16.20;;
3099;SDS011;1560;52.746;13.474;2022-08-19T13:34:38;15.60;;;14.33;;
3099;SDS011;1560;52.746;13.474;2022-08-19T13:37:07;16.60;;;14.90;;
3099;SDS011;1560;52.746;13.474;2022-08-19T13:42:12;16.37;;;14.77;;
3099;SDS011;1560;52.746;13.474;2022-08-19T13:44:41;14.63;;;13.23;;
3099;SDS011;1560;52.746;13.474;2022-08-19T13:47:10;18.60;;;16.33;;
3099;SDS011;1560;52.746;13.474;2022-08-19T13:52:18;17.00;;;15.30;;
3099;SDS011;1560;52.746;13.474;2022-08-19T13:57:24;17.50;;;15.90;;
3099;SDS011;1560;52.746;13.474;2022-08-19T13:59:53;17.53;;;15.83;;
3099;SDS011;1560;52.746;13.474;2022-08-19T14:02:22;18.07;;;16.27;;
3099;SDS011;1560;52.746;13.474;2022-08-19T14:04:59;16.20;;;14.60;;
3099;SDS011;1560;52.746;13.474;2022-08-19T14:07:29;17.53;;;15.93;;
3099;SDS011;1560;52.746;13.474;2022-08-19T14:09:58;14.83;;;13.53;;
3099;SDS011;1560;52.746;13.474;2022-08-19T14:15:05;17.80;;;16.00;;
3099;SDS011;1560;52.746;13.474;2022-08-19T14:17:38;16.80;;;15.20;;
3099;SDS011;1560;52.746;13.474;2022-08-19T14:22:44;16.20;;;14.70;;
3099;SDS011;1560;52.746;13.474;2022-08-19T14:25:15;17.17;;;15.60;;
3099;SDS011;1560;52.746;13.474;2022-08-19T14:27:46;16.03;;;14.63;;
3099;SDS011;1560;52.746;13.474;2022-08-19T14:30:17;17.90;;;16.10;;
3099;SDS011;1560;52.746;13.474;2022-08-19T14:32:54;16.17;;;14.60;;
3099;SDS011;1560;52.746;13.474;2022-08-19T14:38:02;16.70;;;15.00;;
3099;SDS011;1560;52.746;13.474;2022-08-19T14:40:33;17.77;;;16.07;;
3099;SDS011;1560;52.746;13.474;2022-08-19T14:45:39;16.43;;;15.03;;
3099;SDS011;1560;52.746;13.474;2022-08-19T14:48:08;16.20;;;14.70;;
3099;SDS011;1560;52.746;13.474;2022-08-19T14:50:38;14.90;;;13.53;;
3099;SDS011;1560;52.746;13.474;2022-08-19T14:55:44;16.60;;;15.10;;
3099;SDS011;1560;52.746;13.474;2022-08-19T14:58:14;17.03;;;15.13;;
3099;SDS011;1560;52.746;13.474;2022-08-19T15:00:43;17.77;;;15.90;;
3099;SDS011;1560;52.746;13.474;2022-08-19T15:03:12;15.47;;;13.97;;
3099;SDS011;1560;52.746;13.474;2022-08-19T15:05:42;16.20;;;14.50;;
3099;SDS011;1560;52.746;13.474;2022-08-19T15:08:11;18.00;;;16.33;;
3099;SDS011;1560;52.746;13.474;2022-08-19T15:10:40;16.90;;;15.40;;
3099;SDS011;1560;52.746;13.474;2022-08-19T15:13:09;16.70;;;15.13;;
3099;SDS011;1560;52.746;13.474;2022-08-19T15:15:38;16.13;;;14.67;;
3099;SDS011;1560;52.746;13.474;2022-08-19T15:18:06;17.43;;;15.83;;
3099;SDS011;1560;52.746;13.474;2022-08-19T15:20:37;16.50;;;14.87;;
3099;SDS011;1560;52.746;13.474;2022-08-19T15:23:06;18.00;;;14.80;;
3099;SDS011;1560;52.746;13.474;2022-08-19T15:25:36;16.07;;;14.67;;
3099;SDS011;1560;52.746;13.474;2022-08-19T15:28:05;16.40;;;14.70;;
3099;SDS011;1560;52.746;13.474;2022-08-19T15:33:12;15.03;;;13.57;;
3099;SDS011;1560;52.746;13.474;2022-08-19T15:35:41;17.23;;;15.63;;
3099;SDS011;1560;52.746;13.474;2022-08-19T15:38:11;14.03;;;12.73;;
3099;SDS011;1560;52.746;13.474;2022-08-19T15:40:40;15.37;;;13.87;;
3099;SDS011;1560;52.746;13.474;2022-08-19T15:45:47;15.37;;;13.93;;
3099;SDS011;1560;52.746;13.474;2022-08-19T15:48:16;16.17;;;14.50;;
3099;SDS011;1560;52.746;13.474;2022-08-19T15:50:44;15.87;;;14.47;;
3099;SDS011;1560;52.746;13.474;2022-08-19T15:53:13;16.30;;;14.67;;
3099;SDS011;1560;52.746;13.474;2022-08-19T15:55:43;16.33;;;14.83;;
3099;SDS011;1560;52.746;13.474;2022-08-19T15:58:14;14.77;;;13.27;;
3099;SDS011;1560;52.746;13.474;2022-08-19T16:03:36;14.67;;;13.13;;
3099;SDS011;1560;52.746;13.474;2022-08-19T16:06:22;14.67;;;13.27;;
3099;SDS011;1560;52.746;13.474;2022-08-19T16:08:51;16.10;;;14.60;;
3099;SDS011;1560;52.746;13.474;2022-08-19T16:11:21;15.20;;;13.70;;
3099;SDS011;1560;52.746;13.474;2022-08-19T16:13:59;16.80;;;13.60;;
3099;SDS011;1560;52.746;13.474;2022-08-19T16:16:30;15.83;;;14.33;;
3099;SDS011;1560;52.746;13.474;2022-08-19T16:19:02;15.67;;;14.27;;
3099;SDS011;1560;52.746;13.474;2022-08-19T16:21:32;15.50;;;13.17;;
3099;SDS011;1560;52.746;13.474;2022-08-19T16:24:04;15.47;;;13.90;;
3099;SDS011;1560;52.746;13.474;2022-08-19T16:26:33;15.57;;;13.93;;
3099;SDS011;1560;52.746;13.474;2022-08-19T16:29:03;14.40;;;13.00;;
3099;SDS011;1560;52.746;13.474;2022-08-19T16:31:33;15.60;;;14.10;;
3099;SDS011;1560;52.746;13.474;2022-08-19T16:34:03;14.50;;;13.20;;
3099;SDS011;1560;52.746;13.474;2022-08-19T16:39:08;16.30;;;14.40;;
3099;SDS011;1560;52.746;13.474;2022-08-19T16:41:38;15.10;;;13.70;;
3099;SDS011;1560;52.746;13.474;2022-08-19T16:44:08;15.80;;;14.30;;
3099;SDS011;1560;52.746;13.474;2022-08-19T16:46:39;16.60;;;14.87;;
3099;SDS011;1560;52.746;13.474;2022-08-19T16:49:16;15.70;;;14.10;;
3099;SDS011;1560;52.746;13.474;2022-08-19T16:51:45;15.43;;;13.90;;
3099;SDS011;1560;52.746;13.474;2022-08-19T16:54:14;18.07;;;14.33;;
3099;SDS011;1560;52.746;13.474;2022-08-19T16:56:43;16.97;;;14.90;;
3099;SDS011;1560;52.746;13.474;2022-08-19T16:59:14;16.90;;;15.20;;
3099;SDS011;1560;52.746;13.474;2022-08-19T17:01:43;17.10;;;15.47;;
3099;SDS011;1560;52.746;13.474;2022-08-19T17:04:12;16.20;;;14.70;;
3099;SDS011;1560;52.746;13.474;2022-08-19T17:06:41;17.50;;;15.90;;
3099;SDS011;1560;52.746;13.474;2022-08-19T17:09:11;17.50;;;15.80;;
3099;SDS011;1560;52.746;13.474;2022-08-19T17:11:41;16.60;;;15.00;;
3099;SDS011;1560;52.746;13.474;2022-08-19T17:14:10;15.93;;;14.33;;
3099;SDS011;1560;52.746;13.474;2022-08-19T17:16:39;19.30;;;17.00;;
3099;SDS011;1560;52.746;13.474;2022-08-19T17:19:08;16.93;;;15.20;;
3099;SDS011;1560;52.746;13.474;2022-08-19T17:21:38;15.50;;;14.00;;
3099;SDS011;1560;52.746;13.474;2022-08-19T17:24:07;15.70;;;14.23;;
3099;SDS011;1560;52.746;13.474;2022-08-19T17:26:37;18.30;;;16.33;;
3099;SDS011;1560;52.746;13.474;2022-08-19T17:29:07;16.33;;;14.63;;
3099;SDS011;1560;52.746;13.474;2022-08-19T17:31:36;17.30;;;15.60;;
3099;SDS011;1560;52.746;13.474;2022-08-19T17:34:05;14.70;;;13.30;;
3099;SDS011;1560;52.746;13.474;2022-08-19T17:39:11;16.00;;;13.67;;
3099;SDS011;1560;52.746;13.474;2022-08-19T17:41:41;19.70;;;14.87;;
3099;SDS011;1560;52.746;13.474;2022-08-19T17:46:46;14.07;;;12.63;;
3099;SDS011;1560;52.746;13.474;2022-08-19T17:49:17;15.17;;;13.73;;
3099;SDS011;1560;52.746;13.474;2022-08-19T17:51:46;16.70;;;14.97;;
3099;SDS011;1560;52.746;13.474;2022-08-19T17:56:51;15.20;;;13.67;;